Terminal Aerodrome Forecast
Issued by NWS Grand Rapids, MI

Home | Current Version | Previous Version | Text Only | Print | Product List | Glossary On
Versions: 1 2 3 4 5 6 7 8 9 10 11 12 13
000
FTUS43 KGRR 290800 AAA
TAFGRR
TAF AMD
KGRR 290820Z 2908/3006 16009KT P6SM -FZRA OVC070 WS020/21050KT
     FM290900 17012KT 5SM -FZRAPL OVC015
     FM291200 23008KT 1SM -SNPL BR OVC009
     FM291800 31016G28KT 4SM -SHSN OVC015=

USA.gov is the U.S. government's official web portal to all federal, state and local government web resources and services.